createdAt,value
2023-01-13T00:02:02.969Z,1.63
2023-01-13T00:05:05.769Z,2.00
2023-01-13T00:08:10.050Z,2.08
2023-01-13T00:11:13.689Z,2.15
2023-01-13T00:14:18.641Z,2.17
2023-01-13T00:17:23.224Z,2.29
2023-01-13T00:20:25.437Z,2.42
2023-01-13T00:23:29.278Z,2.37
2023-01-13T00:26:33.688Z,2.29
2023-01-13T00:29:39.263Z,2.23
2023-01-13T00:32:41.476Z,2.36
2023-01-13T00:35:43.681Z,2.41
2023-01-13T00:38:47.676Z,2.55
2023-01-13T00:42:09.691Z,2.51
2023-01-13T00:45:11.944Z,2.47
2023-01-13T00:48:14.984Z,2.56
2023-01-13T00:51:19.442Z,2.65
2023-01-13T00:54:22.311Z,2.70
2023-01-13T00:57:24.587Z,2.59
2023-01-13T01:00:26.936Z,2.49
2023-01-13T01:03:29.967Z,2.46
2023-01-13T01:06:32.299Z,2.42
2023-01-13T01:09:35.991Z,2.51
2023-01-13T01:12:38.363Z,2.58
2023-01-13T01:15:44.175Z,2.34
2023-01-13T01:18:48.613Z,2.19
2023-01-13T01:21:55.030Z,2.10
2023-01-13T01:24:58.839Z,2.12
2023-01-13T01:28:04.983Z,2.06
2023-01-13T01:31:13.942Z,2.13
2023-01-13T01:34:16.903Z,2.07
2023-01-13T01:37:19.099Z,2.03
2023-01-13T01:40:21.813Z,1.98
2023-01-13T01:44:00.122Z,1.94
2023-01-13T01:47:02.515Z,1.81
2023-01-13T01:50:06.266Z,1.82
2023-01-13T01:53:17.670Z,1.78
2023-01-13T01:56:21.035Z,1.72
2023-01-13T01:59:25.177Z,1.83
2023-01-13T02:02:34.024Z,1.94
2023-01-13T02:05:39.276Z,1.89
2023-01-13T02:08:41.575Z,1.91
2023-01-13T02:12:02.521Z,1.95
2023-01-13T02:15:09.883Z,1.95
2023-01-13T02:18:13.769Z,1.95
2023-01-13T02:21:38.341Z,1.83
2023-01-13T02:25:13.173Z,1.81
2023-01-13T02:29:06.889Z,1.85
2023-01-13T02:32:19.472Z,1.89
2023-01-13T02:35:30.076Z,1.95
2023-01-13T02:38:41.892Z,2.12
2023-01-13T02:42:13.056Z,2.01
2023-01-13T02:45:18.764Z,2.10
2023-01-13T02:48:24.100Z,1.97
2023-01-13T02:51:29.105Z,2.03
2023-01-13T02:54:35.911Z,1.92
2023-01-13T02:57:40.608Z,1.89
2023-01-13T03:00:44.526Z,1.85
2023-01-13T03:03:52.053Z,1.87
2023-01-13T03:07:07.756Z,1.92
2023-01-13T03:10:39.232Z,1.89
2023-01-13T03:14:13.415Z,2.14
2023-01-13T03:18:00.943Z,2.06
2023-01-13T03:21:15.049Z,2.16
2023-01-13T03:24:20.962Z,2.26
2023-01-13T03:27:33.945Z,2.34
2023-01-13T03:30:50.152Z,2.35
2023-01-13T03:34:16.031Z,2.21
2023-01-13T03:37:25.755Z,2.11
2023-01-13T03:40:35.375Z,2.12
2023-01-13T03:44:02.949Z,2.18
2023-01-13T03:47:12.573Z,2.11
2023-01-13T03:50:20.122Z,2.27
2023-01-13T03:53:32.582Z,2.46
2023-01-13T03:56:50.261Z,2.51
2023-01-13T03:59:59.282Z,2.44
2023-01-13T04:03:09.367Z,2.29
2023-01-13T04:06:23.520Z,2.20
2023-01-13T04:09:50.035Z,2.13
2023-01-13T04:13:07.059Z,2.20
2023-01-13T04:16:11.840Z,2.20
2023-01-13T04:19:14.316Z,2.19
2023-01-13T04:22:23.207Z,2.18
2023-01-13T04:25:25.617Z,2.15
2023-01-13T04:28:28.100Z,2.16
2023-01-13T04:31:30.384Z,2.35
2023-01-13T04:34:33.798Z,2.52
2023-01-13T04:37:37.246Z,2.54
2023-01-13T04:40:40.395Z,2.40
2023-01-13T04:43:42.607Z,2.36
2023-01-13T04:46:44.994Z,2.27
2023-01-13T04:49:48.208Z,2.46
2023-01-13T04:52:51.379Z,2.32
2023-01-13T04:55:55.057Z,2.26
2023-01-13T04:58:59.428Z,2.38
2023-01-13T05:02:01.959Z,2.32
2023-01-13T05:05:05.129Z,2.35
2023-01-13T05:08:09.097Z,2.43
2023-01-13T05:11:33.241Z,2.37
2023-01-13T05:14:54.069Z,2.26
2023-01-13T05:17:56.378Z,2.28
2023-01-13T05:21:01.553Z,2.21
2023-01-13T05:24:22.504Z,2.25
2023-01-13T05:27:24.940Z,2.44
2023-01-13T05:30:30.303Z,2.28
2023-01-13T05:33:34.929Z,2.12
2023-01-13T05:36:40.667Z,2.30
2023-01-13T05:40:02.000Z,2.41
2023-01-13T05:43:25.208Z,2.22
2023-01-13T05:46:28.959Z,2.08
2023-01-13T05:49:31.581Z,1.98
2023-01-13T05:52:34.002Z,1.94
2023-01-13T05:55:39.127Z,2.08
2023-01-13T05:58:41.376Z,2.12
2023-01-13T06:01:44.432Z,2.21
2023-01-13T06:04:46.804Z,2.13
2023-01-13T06:07:49.085Z,2.15
2023-01-13T06:10:51.354Z,2.15
2023-01-13T06:13:54.291Z,2.22
2023-01-13T06:16:56.665Z,2.17
2023-01-13T06:19:58.956Z,2.23
2023-01-13T06:23:01.847Z,2.25
2023-01-13T06:26:20.080Z,2.28
2023-01-13T06:29:22.371Z,2.42
2023-01-13T06:32:38.940Z,2.47
2023-01-13T06:35:54.320Z,2.39
2023-01-13T06:39:01.872Z,2.34
2023-01-13T06:42:23.472Z,2.35
2023-01-13T06:45:29.881Z,2.41
2023-01-13T06:48:35.674Z,2.60
2023-01-13T06:51:41.761Z,2.66
2023-01-13T06:54:45.297Z,2.49
2023-01-13T06:57:52.755Z,2.69
2023-01-13T07:01:00.021Z,2.76
2023-01-13T07:04:05.269Z,2.80
2023-01-13T07:07:18.205Z,2.70
2023-01-13T07:10:24.619Z,2.70
2023-01-13T07:13:50.319Z,2.80
2023-01-13T07:16:56.287Z,2.93
2023-01-13T07:19:59.127Z,3.09
2023-01-13T07:23:01.410Z,3.20
2023-01-13T07:26:04.593Z,3.39
2023-01-13T07:29:08.093Z,3.39
2023-01-13T07:32:15.717Z,3.34
2023-01-13T07:35:23.401Z,3.47
2023-01-13T07:38:27.840Z,3.66
2023-01-13T07:41:51.730Z,3.75
2023-01-13T07:44:56.339Z,3.93
2023-01-13T07:47:58.710Z,4.15
2023-01-13T07:51:07.436Z,4.01
2023-01-13T07:54:09.762Z,4.10
2023-01-13T07:57:13.776Z,4.06
2023-01-13T08:00:21.284Z,4.18
2023-01-13T08:03:24.128Z,4.31
2023-01-13T08:06:26.952Z,4.19
2023-01-13T08:09:30.667Z,4.20
2023-01-13T08:12:57.163Z,4.20
2023-01-13T08:16:08.896Z,4.05
2023-01-13T08:19:12.313Z,3.89
2023-01-13T08:22:14.730Z,3.77
2023-01-13T08:25:19.880Z,3.87
2023-01-13T08:28:24.172Z,3.90
2023-01-13T08:31:26.552Z,4.07
2023-01-13T08:34:30.944Z,4.07
2023-01-13T08:37:39.509Z,3.95
2023-01-13T08:40:42.440Z,4.06
2023-01-13T08:43:46.114Z,4.24
2023-01-13T08:46:54.237Z,4.23
2023-01-13T08:49:56.723Z,4.45
2023-01-13T08:53:00.968Z,4.54
2023-01-13T08:56:12.708Z,4.53
2023-01-13T08:59:17.349Z,4.46
2023-01-13T09:02:22.203Z,4.44
2023-01-13T09:05:26.385Z,4.49
2023-01-13T09:08:28.799Z,4.36
2023-01-13T09:11:54.530Z,4.35
2023-01-13T09:14:59.146Z,4.29
2023-01-13T09:18:06.987Z,4.26
2023-01-13T09:21:12.354Z,4.34
2023-01-13T09:24:14.798Z,4.58
2023-01-13T09:27:17.145Z,4.49
2023-01-13T09:30:20.821Z,4.44
2023-01-13T09:33:43.038Z,4.69
2023-01-13T09:37:04.806Z,4.71
2023-01-13T09:40:18.502Z,4.82
2023-01-13T09:43:46.060Z,5.01
2023-01-13T09:46:57.027Z,4.83
2023-01-13T09:50:22.194Z,4.69
2023-01-13T09:53:39.079Z,4.68
2023-01-13T09:56:42.671Z,4.83
2023-01-13T09:59:45.691Z,4.77
2023-01-13T10:03:01.874Z,4.61
2023-01-13T10:06:10.880Z,4.33
2023-01-13T10:09:51.486Z,4.24
2023-01-13T10:13:14.103Z,4.40
2023-01-13T10:16:42.016Z,4.55
2023-01-13T10:20:17.771Z,4.60
2023-01-13T10:23:44.825Z,4.55
2023-01-13T10:26:55.094Z,4.74
2023-01-13T10:29:57.521Z,4.62
2023-01-13T10:33:06.673Z,4.57
2023-01-13T10:36:15.127Z,4.38
2023-01-13T10:39:17.698Z,4.28
2023-01-13T10:42:24.157Z,4.50
2023-01-13T10:45:26.522Z,4.67
2023-01-13T10:48:37.377Z,4.84
2023-01-13T10:51:40.216Z,4.67
2023-01-13T10:54:52.340Z,4.38
2023-01-13T10:57:54.819Z,4.30
2023-01-13T11:01:07.410Z,4.56
2023-01-13T11:04:31.343Z,4.41
2023-01-13T11:07:35.182Z,4.29
2023-01-13T11:10:48.662Z,4.46
2023-01-13T11:14:12.752Z,4.54
2023-01-13T11:17:31.334Z,4.28
2023-01-13T11:20:38.486Z,4.33
2023-01-13T11:23:48.689Z,4.39
2023-01-13T11:27:02.128Z,4.21
2023-01-13T11:30:29.703Z,4.24
2023-01-13T11:33:40.411Z,4.31
2023-01-13T11:36:50.767Z,4.31
2023-01-13T11:40:18.771Z,4.19
2023-01-13T11:43:32.516Z,4.29
2023-01-13T11:46:34.961Z,4.34
2023-01-13T11:49:39.964Z,4.59
2023-01-13T11:52:49.409Z,4.59
2023-01-13T11:56:20.101Z,4.30
2023-01-13T11:59:57.769Z,4.36
2023-01-13T12:03:09.147Z,4.39
2023-01-13T12:06:17.542Z,4.40
2023-01-13T12:09:40.334Z,4.42
2023-01-13T12:13:18.771Z,4.40
2023-01-13T12:16:26.426Z,4.44
2023-01-13T12:19:32.508Z,4.56
2023-01-13T12:22:37.281Z,4.66
2023-01-13T12:25:50.338Z,4.76
2023-01-13T12:29:07.227Z,4.70
2023-01-13T12:32:19.089Z,4.45
2023-01-13T12:35:44.475Z,4.40
2023-01-13T12:38:53.271Z,4.16
2023-01-13T12:42:54.473Z,4.12
2023-01-13T12:46:20.885Z,4.38
2023-01-13T12:49:31.594Z,4.57
2023-01-13T12:52:44.297Z,4.52
2023-01-13T12:55:52.147Z,4.47
2023-01-13T12:59:17.223Z,4.62
2023-01-13T13:02:27.597Z,4.61
2023-01-13T13:05:54.843Z,4.81
2023-01-13T13:09:06.385Z,4.78
2023-01-13T13:12:49.080Z,4.79
2023-01-13T13:16:07.713Z,4.67
2023-01-13T13:19:18.675Z,4.85
2023-01-13T13:22:28.281Z,4.73
2023-01-13T13:25:30.857Z,4.69
2023-01-13T13:28:38.179Z,4.75
2023-01-13T13:32:02.184Z,4.87
2023-01-13T13:35:35.313Z,4.75
2023-01-13T13:39:27.534Z,4.65
2023-01-13T13:42:58.575Z,4.62
2023-01-13T13:46:21.190Z,4.62
2023-01-13T13:49:46.680Z,4.83
2023-01-13T13:52:59.082Z,4.84
2023-01-13T13:56:03.703Z,4.87
2023-01-13T13:59:11.215Z,4.79
2023-01-13T14:02:20.068Z,4.79
2023-01-13T14:05:28.453Z,4.84
2023-01-13T14:08:35.729Z,4.93
2023-01-13T14:11:37.967Z,5.01
2023-01-13T14:14:43.962Z,4.93
2023-01-13T14:17:46.329Z,4.99
2023-01-13T14:21:18.538Z,5.02
2023-01-13T14:24:22.571Z,5.06
2023-01-13T14:27:30.134Z,5.03
2023-01-13T14:30:33.008Z,4.97
2023-01-13T14:33:40.660Z,5.14
2023-01-13T14:36:51.025Z,5.18
2023-01-13T14:39:53.543Z,4.97
2023-01-13T14:43:15.855Z,5.06
2023-01-13T14:46:19.341Z,4.98
2023-01-13T14:49:28.546Z,4.94
2023-01-13T14:52:34.437Z,5.01
2023-01-13T14:55:40.830Z,4.86
2023-01-13T14:58:43.078Z,4.98
2023-01-13T15:01:47.658Z,4.94
2023-01-13T15:04:53.921Z,4.92
2023-01-13T15:08:01.345Z,5.06
2023-01-13T15:11:08.427Z,4.96
2023-01-13T15:14:11.502Z,4.98
2023-01-13T15:17:16.738Z,4.86
2023-01-13T15:20:22.160Z,4.89
2023-01-13T15:23:24.511Z,4.97
2023-01-13T15:26:29.155Z,5.01
2023-01-13T15:29:31.445Z,4.94
2023-01-13T15:32:38.243Z,4.82
2023-01-13T15:35:44.263Z,4.85
2023-01-13T15:38:46.544Z,4.90
2023-01-13T15:42:07.629Z,4.83
2023-01-13T15:45:31.350Z,4.68
2023-01-13T15:48:34.012Z,4.68
2023-01-13T15:51:39.013Z,4.68
2023-01-13T15:54:41.260Z,4.68
2023-01-13T15:57:49.758Z,4.60
2023-01-13T16:00:52.069Z,4.80
2023-01-13T16:03:57.041Z,4.61
2023-01-13T16:06:59.525Z,4.56
2023-01-13T16:10:05.130Z,4.55
2023-01-13T16:13:07.535Z,4.56
2023-01-13T16:16:19.011Z,4.63
2023-01-13T16:19:24.478Z,4.54
2023-01-13T16:22:26.877Z,4.59
2023-01-13T16:25:29.284Z,4.79
2023-01-13T16:28:31.754Z,4.93
2023-01-13T16:31:34.654Z,4.96
2023-01-13T16:34:37.265Z,4.81
2023-01-13T16:37:45.347Z,4.94
2023-01-13T16:40:48.160Z,5.00
2023-01-13T16:43:50.635Z,4.92
2023-01-13T16:46:52.908Z,4.82
2023-01-13T16:49:55.198Z,4.91
2023-01-13T16:52:58.653Z,4.91
2023-01-13T16:56:00.927Z,4.96
2023-01-13T16:59:09.317Z,4.92
2023-01-13T17:02:15.555Z,4.91
2023-01-13T17:05:18.017Z,4.85
2023-01-13T17:08:20.316Z,4.81
2023-01-13T17:11:22.593Z,4.85
2023-01-13T17:14:26.025Z,4.79
2023-01-13T17:17:30.913Z,4.76
2023-01-13T17:20:33.235Z,4.74
2023-01-13T17:23:35.507Z,4.72
2023-01-13T17:26:44.078Z,4.75
2023-01-13T17:29:46.381Z,4.82
2023-01-13T17:32:48.725Z,4.81
2023-01-13T17:35:51.032Z,4.82
2023-01-13T17:38:54.826Z,4.86
2023-01-13T17:41:57.123Z,4.83
2023-01-13T17:44:59.423Z,4.84
2023-01-13T17:48:01.943Z,4.86
2023-01-13T17:51:07.363Z,4.85
2023-01-13T17:54:12.795Z,4.90
2023-01-13T17:57:15.123Z,4.91
2023-01-13T18:00:17.719Z,4.93
2023-01-13T18:03:19.989Z,4.94
2023-01-13T18:06:25.653Z,4.90
2023-01-13T18:09:28.008Z,4.89
2023-01-13T18:12:30.351Z,4.82
2023-01-13T18:15:33.924Z,4.82
2023-01-13T18:18:36.297Z,4.82
2023-01-13T18:21:57.374Z,4.81
2023-01-13T18:25:18.952Z,4.78
2023-01-13T18:28:21.669Z,4.84
2023-01-13T18:31:24.813Z,4.91
2023-01-13T18:34:27.262Z,4.93
2023-01-13T18:37:29.555Z,4.91
2023-01-13T18:40:31.831Z,4.90
2023-01-13T18:43:34.142Z,4.85
2023-01-13T18:46:36.556Z,4.86
2023-01-13T18:49:38.928Z,4.81
2023-01-13T18:52:43.899Z,4.85
2023-01-13T18:55:50.042Z,4.90
2023-01-13T18:58:53.385Z,4.90
2023-01-13T19:01:55.715Z,4.99
2023-01-13T19:04:58.107Z,4.96
2023-01-13T19:08:01.121Z,4.98
2023-01-13T19:11:05.511Z,4.97
2023-01-13T19:14:07.836Z,5.06
2023-01-13T19:17:12.936Z,5.15
2023-01-13T19:20:15.569Z,5.18
2023-01-13T19:23:18.000Z,5.11
2023-01-13T19:26:20.576Z,5.15
2023-01-13T19:29:22.958Z,5.11
2023-01-13T19:32:25.326Z,5.12
2023-01-13T19:35:27.634Z,5.22
2023-01-13T19:38:30.184Z,5.16
2023-01-13T19:41:50.643Z,5.09
2023-01-13T19:45:13.800Z,5.14
2023-01-13T19:48:19.051Z,5.07
2023-01-13T19:51:21.247Z,5.01
2023-01-13T19:54:23.618Z,5.06
2023-01-13T19:57:28.665Z,5.11
2023-01-13T20:00:31.263Z,5.17
2023-01-13T20:03:37.688Z,5.13
2023-01-13T20:06:46.483Z,5.06
2023-01-13T20:09:48.831Z,5.24
2023-01-13T20:12:51.336Z,5.16
2023-01-13T20:15:53.626Z,5.08
2023-01-13T20:18:56.665Z,5.05
2023-01-13T20:21:59.205Z,5.03
2023-01-13T20:25:01.546Z,5.04
2023-01-13T20:28:04.380Z,5.14
2023-01-13T20:31:08.517Z,5.17
2023-01-13T20:34:10.865Z,5.09
2023-01-13T20:37:15.574Z,5.01
2023-01-13T20:40:21.338Z,5.00
2023-01-13T20:43:23.685Z,5.02
2023-01-13T20:46:26.024Z,5.07
2023-01-13T20:49:30.397Z,5.14
2023-01-13T20:52:36.967Z,5.15
2023-01-13T20:55:40.235Z,5.14
2023-01-13T20:58:44.034Z,5.12
2023-01-13T21:01:46.408Z,5.09
2023-01-13T21:04:48.946Z,5.10
2023-01-13T21:07:54.495Z,5.18
2023-01-13T21:11:04.962Z,5.19
2023-01-13T21:14:35.828Z,5.14
2023-01-13T21:17:56.730Z,5.15
2023-01-13T21:21:11.990Z,5.16
2023-01-13T21:24:14.355Z,5.19
2023-01-13T21:27:16.950Z,5.08
2023-01-13T21:30:19.288Z,4.98
2023-01-13T21:33:22.451Z,4.99
2023-01-13T21:36:26.988Z,4.88
2023-01-13T21:39:29.461Z,4.86
2023-01-13T21:42:50.379Z,4.75
2023-01-13T21:46:11.114Z,4.79
2023-01-13T21:49:13.425Z,4.79
2023-01-13T21:52:18.831Z,5.04
2023-01-13T21:55:29.931Z,4.97
2023-01-13T21:58:33.372Z,4.83
2023-01-13T22:01:35.706Z,4.74
2023-01-13T22:04:41.082Z,4.70
2023-01-13T22:07:46.039Z,4.78
2023-01-13T22:11:10.141Z,4.75
2023-01-13T22:14:14.015Z,4.78
2023-01-13T22:17:17.462Z,4.78
2023-01-13T22:20:20.310Z,4.85
2023-01-13T22:23:25.333Z,4.90
2023-01-13T22:26:27.868Z,4.88
2023-01-13T22:29:30.144Z,4.85
2023-01-13T22:32:35.665Z,4.89
2023-01-13T22:35:39.629Z,4.89
2023-01-13T22:38:41.894Z,4.93
2023-01-13T22:41:44.155Z,4.86
2023-01-13T22:44:46.368Z,4.90
2023-01-13T22:47:51.556Z,4.84
2023-01-13T22:50:54.020Z,4.84
2023-01-13T22:53:58.730Z,4.81
2023-01-13T22:57:02.552Z,4.75
2023-01-13T23:00:07.932Z,4.85
2023-01-13T23:03:10.261Z,4.67
2023-01-13T23:06:13.087Z,4.85
2023-01-13T23:09:15.598Z,4.91
2023-01-13T23:12:17.898Z,4.80
2023-01-13T23:15:20.487Z,4.86
2023-01-13T23:18:26.298Z,4.75
2023-01-13T23:21:31.159Z,4.67
2023-01-13T23:24:33.494Z,4.67
2023-01-13T23:27:36.482Z,4.65
2023-01-13T23:30:40.091Z,4.61
2023-01-13T23:33:43.591Z,4.57
2023-01-13T23:36:48.784Z,4.64
2023-01-13T23:39:51.057Z,4.64
2023-01-13T23:42:53.400Z,4.66
2023-01-13T23:46:25.716Z,4.63
2023-01-13T23:49:28.165Z,4.61
2023-01-13T23:52:30.437Z,4.64
2023-01-13T23:55:33.026Z,4.69
2023-01-13T23:58:38.449Z,4.92
